sensor_id;sensor_type;location;lat;lon;timestamp;P1;durP1;ratioP1;P2;durP2;ratioP2
20734;SDS011;10528;52.124;5.196;2024-02-21T00:00:47;17.77;;;3.45;;
20734;SDS011;10528;52.124;5.196;2024-02-21T00:03:14;15.48;;;3.13;;
20734;SDS011;10528;52.124;5.196;2024-02-21T00:05:41;12.25;;;2.85;;
20734;SDS011;10528;52.124;5.196;2024-02-21T00:08:08;9.63;;;2.88;;
20734;SDS011;10528;52.124;5.196;2024-02-21T00:10:35;10.45;;;2.65;;
20734;SDS011;10528;52.124;5.196;2024-02-21T00:13:02;13.43;;;3.60;;
20734;SDS011;10528;52.124;5.196;2024-02-21T00:15:29;9.30;;;2.72;;
20734;SDS011;10528;52.124;5.196;2024-02-21T00:17:56;14.68;;;3.25;;
20734;SDS011;10528;52.124;5.196;2024-02-21T00:20:23;8.88;;;2.80;;
20734;SDS011;10528;52.124;5.196;2024-02-21T00:22:52;15.90;;;3.30;;
20734;SDS011;10528;52.124;5.196;2024-02-21T00:25:19;11.70;;;3.08;;
20734;SDS011;10528;52.124;5.196;2024-02-21T00:27:46;10.15;;;3.38;;
20734;SDS011;10528;52.124;5.196;2024-02-21T00:30:13;10.57;;;2.50;;
20734;SDS011;10528;52.124;5.196;2024-02-21T00:32:40;10.05;;;2.42;;
20734;SDS011;10528;52.124;5.196;2024-02-21T00:35:08;12.95;;;3.25;;
20734;SDS011;10528;52.124;5.196;2024-02-21T00:37:35;9.50;;;3.38;;
20734;SDS011;10528;52.124;5.196;2024-02-21T00:40:02;9.77;;;2.42;;
20734;SDS011;10528;52.124;5.196;2024-02-21T00:42:29;9.30;;;3.00;;
20734;SDS011;10528;52.124;5.196;2024-02-21T00:44:56;9.25;;;2.15;;
20734;SDS011;10528;52.124;5.196;2024-02-21T00:47:23;10.57;;;2.97;;
20734;SDS011;10528;52.124;5.196;2024-02-21T00:49:50;12.30;;;2.75;;
20734;SDS011;10528;52.124;5.196;2024-02-21T00:52:17;11.52;;;2.95;;
20734;SDS011;10528;52.124;5.196;2024-02-21T00:54:44;16.38;;;3.20;;
20734;SDS011;10528;52.124;5.196;2024-02-21T00:57:19;18.15;;;3.53;;
20734;SDS011;10528;52.124;5.196;2024-02-21T00:59:47;12.68;;;3.08;;
20734;SDS011;10528;52.124;5.196;2024-02-21T01:02:14;11.63;;;3.08;;
20734;SDS011;10528;52.124;5.196;2024-02-21T01:04:41;13.23;;;3.47;;
20734;SDS011;10528;52.124;5.196;2024-02-21T01:07:08;11.90;;;2.80;;
20734;SDS011;10528;52.124;5.196;2024-02-21T01:09:34;14.27;;;3.85;;
20734;SDS011;10528;52.124;5.196;2024-02-21T01:12:01;10.45;;;3.35;;
20734;SDS011;10528;52.124;5.196;2024-02-21T01:14:28;8.48;;;2.95;;
20734;SDS011;10528;52.124;5.196;2024-02-21T01:16:55;12.85;;;4.18;;
20734;SDS011;10528;52.124;5.196;2024-02-21T01:19:22;17.80;;;3.72;;
20734;SDS011;10528;52.124;5.196;2024-02-21T01:21:50;12.50;;;2.95;;
20734;SDS011;10528;52.124;5.196;2024-02-21T01:24:17;13.85;;;3.83;;
20734;SDS011;10528;52.124;5.196;2024-02-21T01:26:43;10.82;;;3.42;;
20734;SDS011;10528;52.124;5.196;2024-02-21T01:29:10;12.75;;;3.35;;
20734;SDS011;10528;52.124;5.196;2024-02-21T01:31:37;15.40;;;3.50;;
20734;SDS011;10528;52.124;5.196;2024-02-21T01:34:04;10.50;;;3.22;;
20734;SDS011;10528;52.124;5.196;2024-02-21T01:36:31;13.10;;;3.53;;
20734;SDS011;10528;52.124;5.196;2024-02-21T01:38:58;13.63;;;3.70;;
20734;SDS011;10528;52.124;5.196;2024-02-21T01:41:25;11.07;;;3.92;;
20734;SDS011;10528;52.124;5.196;2024-02-21T01:43:52;12.73;;;3.22;;
20734;SDS011;10528;52.124;5.196;2024-02-21T01:46:19;9.90;;;3.50;;
20734;SDS011;10528;52.124;5.196;2024-02-21T01:48:46;11.55;;;3.60;;
20734;SDS011;10528;52.124;5.196;2024-02-21T01:51:13;9.80;;;3.25;;
20734;SDS011;10528;52.124;5.196;2024-02-21T01:53:42;11.85;;;3.28;;
20734;SDS011;10528;52.124;5.196;2024-02-21T01:56:11;12.93;;;4.15;;
20734;SDS011;10528;52.124;5.196;2024-02-21T01:58:40;11.18;;;3.90;;
20734;SDS011;10528;52.124;5.196;2024-02-21T02:01:10;11.13;;;3.40;;
20734;SDS011;10528;52.124;5.196;2024-02-21T02:03:37;11.48;;;3.40;;
20734;SDS011;10528;52.124;5.196;2024-02-21T02:06:05;16.67;;;4.00;;
20734;SDS011;10528;52.124;5.196;2024-02-21T02:08:35;16.23;;;3.83;;
20734;SDS011;10528;52.124;5.196;2024-02-21T02:11:02;15.77;;;3.85;;
20734;SDS011;10528;52.124;5.196;2024-02-21T02:13:30;11.80;;;4.10;;
20734;SDS011;10528;52.124;5.196;2024-02-21T02:15:57;10.43;;;3.38;;
20734;SDS011;10528;52.124;5.196;2024-02-21T02:18:24;9.38;;;3.70;;
20734;SDS011;10528;52.124;5.196;2024-02-21T02:20:51;12.75;;;4.43;;
20734;SDS011;10528;52.124;5.196;2024-02-21T02:23:31;11.13;;;3.80;;
20734;SDS011;10528;52.124;5.196;2024-02-21T02:25:59;10.98;;;4.45;;
20734;SDS011;10528;52.124;5.196;2024-02-21T02:28:30;15.23;;;4.45;;
20734;SDS011;10528;52.124;5.196;2024-02-21T02:30:57;10.88;;;4.13;;
20734;SDS011;10528;52.124;5.196;2024-02-21T02:33:24;11.65;;;3.75;;
20734;SDS011;10528;52.124;5.196;2024-02-21T02:35:51;13.75;;;4.28;;
20734;SDS011;10528;52.124;5.196;2024-02-21T02:38:18;13.48;;;4.30;;
20734;SDS011;10528;52.124;5.196;2024-02-21T02:40:45;13.13;;;4.95;;
20734;SDS011;10528;52.124;5.196;2024-02-21T02:43:12;12.18;;;4.40;;
20734;SDS011;10528;52.124;5.196;2024-02-21T02:45:39;15.52;;;5.30;;
20734;SDS011;10528;52.124;5.196;2024-02-21T02:48:06;17.67;;;4.50;;
20734;SDS011;10528;52.124;5.196;2024-02-21T02:50:34;12.15;;;4.85;;
20734;SDS011;10528;52.124;5.196;2024-02-21T02:53:01;11.70;;;4.60;;
20734;SDS011;10528;52.124;5.196;2024-02-21T02:55:28;14.13;;;4.50;;
20734;SDS011;10528;52.124;5.196;2024-02-21T02:57:55;8.25;;;4.30;;
20734;SDS011;10528;52.124;5.196;2024-02-21T03:00:23;15.77;;;4.22;;
20734;SDS011;10528;52.124;5.196;2024-02-21T03:02:50;10.90;;;4.43;;
20734;SDS011;10528;52.124;5.196;2024-02-21T03:05:18;14.82;;;4.22;;
20734;SDS011;10528;52.124;5.196;2024-02-21T03:07:48;11.98;;;4.55;;
20734;SDS011;10528;52.124;5.196;2024-02-21T03:10:16;11.70;;;4.55;;
20734;SDS011;10528;52.124;5.196;2024-02-21T03:12:45;11.98;;;4.70;;
20734;SDS011;10528;52.124;5.196;2024-02-21T03:15:12;8.77;;;4.60;;
20734;SDS011;10528;52.124;5.196;2024-02-21T03:17:41;16.65;;;5.15;;
20734;SDS011;10528;52.124;5.196;2024-02-21T03:20:08;12.02;;;4.63;;
20734;SDS011;10528;52.124;5.196;2024-02-21T03:22:39;14.68;;;5.13;;
20734;SDS011;10528;52.124;5.196;2024-02-21T03:25:10;12.85;;;5.22;;
20734;SDS011;10528;52.124;5.196;2024-02-21T03:27:38;12.52;;;5.03;;
20734;SDS011;10528;52.124;5.196;2024-02-21T03:30:05;10.27;;;4.72;;
20734;SDS011;10528;52.124;5.196;2024-02-21T03:32:33;14.75;;;4.63;;
20734;SDS011;10528;52.124;5.196;2024-02-21T03:35:00;12.00;;;4.70;;
20734;SDS011;10528;52.124;5.196;2024-02-21T03:37:27;11.63;;;4.53;;
20734;SDS011;10528;52.124;5.196;2024-02-21T03:39:54;16.00;;;4.72;;
20734;SDS011;10528;52.124;5.196;2024-02-21T03:42:21;15.85;;;5.35;;
20734;SDS011;10528;52.124;5.196;2024-02-21T03:44:48;14.50;;;5.40;;
20734;SDS011;10528;52.124;5.196;2024-02-21T03:47:15;16.58;;;5.40;;
20734;SDS011;10528;52.124;5.196;2024-02-21T03:49:42;11.45;;;4.70;;
20734;SDS011;10528;52.124;5.196;2024-02-21T03:52:09;9.82;;;4.50;;
20734;SDS011;10528;52.124;5.196;2024-02-21T03:54:36;11.77;;;5.10;;
20734;SDS011;10528;52.124;5.196;2024-02-21T03:57:04;10.00;;;4.88;;
20734;SDS011;10528;52.124;5.196;2024-02-21T03:59:32;14.20;;;4.65;;
20734;SDS011;10528;52.124;5.196;2024-02-21T04:01:59;11.68;;;5.05;;
20734;SDS011;10528;52.124;5.196;2024-02-21T04:04:27;12.98;;;4.70;;
20734;SDS011;10528;52.124;5.196;2024-02-21T04:06:54;12.23;;;4.43;;
20734;SDS011;10528;52.124;5.196;2024-02-21T04:09:20;13.00;;;4.78;;
20734;SDS011;10528;52.124;5.196;2024-02-21T04:11:48;10.27;;;5.05;;
20734;SDS011;10528;52.124;5.196;2024-02-21T04:14:15;10.65;;;4.75;;
20734;SDS011;10528;52.124;5.196;2024-02-21T04:16:42;11.55;;;4.50;;
20734;SDS011;10528;52.124;5.196;2024-02-21T04:19:09;14.10;;;4.45;;
20734;SDS011;10528;52.124;5.196;2024-02-21T04:21:36;10.57;;;4.43;;
20734;SDS011;10528;52.124;5.196;2024-02-21T04:24:03;15.27;;;4.53;;
20734;SDS011;10528;52.124;5.196;2024-02-21T04:26:32;13.05;;;4.55;;
20734;SDS011;10528;52.124;5.196;2024-02-21T04:29:00;11.55;;;4.90;;
20734;SDS011;10528;52.124;5.196;2024-02-21T04:31:28;12.48;;;5.10;;
20734;SDS011;10528;52.124;5.196;2024-02-21T04:33:55;9.23;;;4.35;;
20734;SDS011;10528;52.124;5.196;2024-02-21T04:36:22;10.85;;;5.00;;
20734;SDS011;10528;52.124;5.196;2024-02-21T04:38:50;11.82;;;4.80;;
20734;SDS011;10528;52.124;5.196;2024-02-21T04:41:17;7.85;;;4.75;;
20734;SDS011;10528;52.124;5.196;2024-02-21T04:43:45;14.02;;;5.22;;
20734;SDS011;10528;52.124;5.196;2024-02-21T04:46:14;12.10;;;5.75;;
20734;SDS011;10528;52.124;5.196;2024-02-21T04:48:42;12.15;;;5.43;;
20734;SDS011;10528;52.124;5.196;2024-02-21T04:51:09;10.45;;;5.05;;
20734;SDS011;10528;52.124;5.196;2024-02-21T04:53:37;9.00;;;4.70;;
20734;SDS011;10528;52.124;5.196;2024-02-21T04:56:04;8.57;;;5.20;;
20734;SDS011;10528;52.124;5.196;2024-02-21T04:58:32;10.93;;;6.03;;
20734;SDS011;10528;52.124;5.196;2024-02-21T05:00:59;12.00;;;6.53;;
20734;SDS011;10528;52.124;5.196;2024-02-21T05:03:26;7.70;;;5.90;;
20734;SDS011;10528;52.124;5.196;2024-02-21T05:05:52;10.65;;;6.38;;
20734;SDS011;10528;52.124;5.196;2024-02-21T05:08:20;11.20;;;6.32;;
20734;SDS011;10528;52.124;5.196;2024-02-21T05:10:46;9.85;;;5.72;;
20734;SDS011;10528;52.124;5.196;2024-02-21T05:13:13;11.23;;;6.00;;
20734;SDS011;10528;52.124;5.196;2024-02-21T05:15:41;13.07;;;6.20;;
20734;SDS011;10528;52.124;5.196;2024-02-21T05:18:08;12.93;;;6.45;;
20734;SDS011;10528;52.124;5.196;2024-02-21T05:20:35;13.50;;;6.40;;
20734;SDS011;10528;52.124;5.196;2024-02-21T05:23:02;11.45;;;7.00;;
20734;SDS011;10528;52.124;5.196;2024-02-21T05:25:30;13.05;;;6.22;;
20734;SDS011;10528;52.124;5.196;2024-02-21T05:27:57;12.73;;;6.90;;
20734;SDS011;10528;52.124;5.196;2024-02-21T05:30:28;10.93;;;7.20;;
20734;SDS011;10528;52.124;5.196;2024-02-21T05:32:56;12.38;;;7.30;;
20734;SDS011;10528;52.124;5.196;2024-02-21T05:35:26;12.55;;;7.47;;
20734;SDS011;10528;52.124;5.196;2024-02-21T05:37:55;11.85;;;7.10;;
20734;SDS011;10528;52.124;5.196;2024-02-21T05:40:22;10.77;;;7.07;;
20734;SDS011;10528;52.124;5.196;2024-02-21T05:42:49;11.15;;;6.38;;
20734;SDS011;10528;52.124;5.196;2024-02-21T05:45:18;12.18;;;7.05;;
20734;SDS011;10528;52.124;5.196;2024-02-21T05:47:45;11.63;;;6.47;;
20734;SDS011;10528;52.124;5.196;2024-02-21T05:50:12;11.25;;;6.82;;
20734;SDS011;10528;52.124;5.196;2024-02-21T05:52:39;10.38;;;5.93;;
20734;SDS011;10528;52.124;5.196;2024-02-21T05:55:06;10.02;;;6.75;;
20734;SDS011;10528;52.124;5.196;2024-02-21T05:57:36;11.95;;;6.70;;
20734;SDS011;10528;52.124;5.196;2024-02-21T06:00:04;11.35;;;6.30;;
20734;SDS011;10528;52.124;5.196;2024-02-21T06:02:37;9.98;;;6.10;;
20734;SDS011;10528;52.124;5.196;2024-02-21T06:05:04;11.68;;;6.97;;
20734;SDS011;10528;52.124;5.196;2024-02-21T06:07:34;13.82;;;6.18;;
20734;SDS011;10528;52.124;5.196;2024-02-21T06:10:01;11.43;;;6.70;;
20734;SDS011;10528;52.124;5.196;2024-02-21T06:12:29;11.20;;;6.95;;
20734;SDS011;10528;52.124;5.196;2024-02-21T06:14:56;24.33;;;7.13;;
20734;SDS011;10528;52.124;5.196;2024-02-21T06:17:23;13.35;;;6.97;;
20734;SDS011;10528;52.124;5.196;2024-02-21T06:19:50;10.65;;;6.50;;
20734;SDS011;10528;52.124;5.196;2024-02-21T06:22:17;13.88;;;7.93;;
20734;SDS011;10528;52.124;5.196;2024-02-21T06:24:44;11.15;;;6.68;;
20734;SDS011;10528;52.124;5.196;2024-02-21T06:27:11;13.23;;;7.47;;
20734;SDS011;10528;52.124;5.196;2024-02-21T06:29:40;14.02;;;8.02;;
20734;SDS011;10528;52.124;5.196;2024-02-21T06:32:07;13.30;;;8.35;;
20734;SDS011;10528;52.124;5.196;2024-02-21T06:34:35;16.63;;;8.25;;
20734;SDS011;10528;52.124;5.196;2024-02-21T06:37:02;15.32;;;8.93;;
20734;SDS011;10528;52.124;5.196;2024-02-21T06:39:29;16.90;;;8.13;;
20734;SDS011;10528;52.124;5.196;2024-02-21T06:41:56;13.80;;;8.20;;
20734;SDS011;10528;52.124;5.196;2024-02-21T06:44:28;13.90;;;9.02;;
20734;SDS011;10528;52.124;5.196;2024-02-21T06:46:55;15.52;;;9.13;;
20734;SDS011;10528;52.124;5.196;2024-02-21T06:49:23;15.07;;;8.43;;
20734;SDS011;10528;52.124;5.196;2024-02-21T06:51:50;14.30;;;8.35;;
20734;SDS011;10528;52.124;5.196;2024-02-21T06:54:17;16.13;;;8.70;;
20734;SDS011;10528;52.124;5.196;2024-02-21T06:56:44;14.30;;;8.23;;
20734;SDS011;10528;52.124;5.196;2024-02-21T06:59:11;14.38;;;9.10;;
20734;SDS011;10528;52.124;5.196;2024-02-21T07:01:51;15.20;;;9.98;;
20734;SDS011;10528;52.124;5.196;2024-02-21T07:04:20;18.33;;;9.48;;
20734;SDS011;10528;52.124;5.196;2024-02-21T07:06:47;19.50;;;9.73;;
20734;SDS011;10528;52.124;5.196;2024-02-21T07:09:14;16.80;;;9.57;;
20734;SDS011;10528;52.124;5.196;2024-02-21T07:11:41;21.30;;;9.93;;
20734;SDS011;10528;52.124;5.196;2024-02-21T07:14:07;20.48;;;9.88;;
20734;SDS011;10528;52.124;5.196;2024-02-21T07:16:34;17.35;;;9.48;;
20734;SDS011;10528;52.124;5.196;2024-02-21T07:19:02;18.38;;;9.52;;
20734;SDS011;10528;52.124;5.196;2024-02-21T07:21:29;17.15;;;9.23;;
20734;SDS011;10528;52.124;5.196;2024-02-21T07:23:56;17.88;;;9.35;;
20734;SDS011;10528;52.124;5.196;2024-02-21T07:26:23;18.13;;;9.45;;
20734;SDS011;10528;52.124;5.196;2024-02-21T07:28:50;18.73;;;9.43;;
20734;SDS011;10528;52.124;5.196;2024-02-21T07:31:17;16.08;;;8.93;;
20734;SDS011;10528;52.124;5.196;2024-02-21T07:33:44;16.73;;;9.95;;
20734;SDS011;10528;52.124;5.196;2024-02-21T07:36:11;18.60;;;9.90;;
20734;SDS011;10528;52.124;5.196;2024-02-21T07:38:38;18.65;;;10.43;;
20734;SDS011;10528;52.124;5.196;2024-02-21T07:41:05;21.92;;;10.60;;
20734;SDS011;10528;52.124;5.196;2024-02-21T07:43:32;21.85;;;10.13;;
20734;SDS011;10528;52.124;5.196;2024-02-21T07:46:00;16.83;;;10.15;;
20734;SDS011;10528;52.124;5.196;2024-02-21T07:48:27;17.02;;;9.73;;
20734;SDS011;10528;52.124;5.196;2024-02-21T07:50:55;17.65;;;9.25;;
20734;SDS011;10528;52.124;5.196;2024-02-21T07:53:22;20.70;;;10.30;;
20734;SDS011;10528;52.124;5.196;2024-02-21T07:55:49;19.55;;;9.85;;
20734;SDS011;10528;52.124;5.196;2024-02-21T07:58:16;16.88;;;9.27;;
20734;SDS011;10528;52.124;5.196;2024-02-21T08:00:43;17.10;;;9.85;;
20734;SDS011;10528;52.124;5.196;2024-02-21T08:03:10;21.10;;;10.05;;
20734;SDS011;10528;52.124;5.196;2024-02-21T08:05:37;20.30;;;10.18;;
20734;SDS011;10528;52.124;5.196;2024-02-21T08:08:04;18.08;;;9.93;;
20734;SDS011;10528;52.124;5.196;2024-02-21T08:10:31;14.73;;;8.77;;
20734;SDS011;10528;52.124;5.196;2024-02-21T08:12:58;16.75;;;9.65;;
20734;SDS011;10528;52.124;5.196;2024-02-21T08:15:25;18.85;;;9.00;;
20734;SDS011;10528;52.124;5.196;2024-02-21T08:17:55;16.95;;;8.93;;
20734;SDS011;10528;52.124;5.196;2024-02-21T08:20:27;23.02;;;10.85;;
20734;SDS011;10528;52.124;5.196;2024-02-21T08:22:54;14.65;;;8.88;;
20734;SDS011;10528;52.124;5.196;2024-02-21T08:25:21;20.95;;;9.43;;
20734;SDS011;10528;52.124;5.196;2024-02-21T08:27:48;15.32;;;9.32;;
20734;SDS011;10528;52.124;5.196;2024-02-21T08:30:15;19.02;;;10.07;;
20734;SDS011;10528;52.124;5.196;2024-02-21T08:32:42;18.92;;;9.95;;
20734;SDS011;10528;52.124;5.196;2024-02-21T08:35:09;15.40;;;9.68;;
20734;SDS011;10528;52.124;5.196;2024-02-21T08:37:37;16.90;;;9.57;;
20734;SDS011;10528;52.124;5.196;2024-02-21T08:40:04;18.98;;;10.30;;
20734;SDS011;10528;52.124;5.196;2024-02-21T08:42:35;21.20;;;11.25;;
20734;SDS011;10528;52.124;5.196;2024-02-21T08:45:04;17.60;;;11.63;;
20734;SDS011;10528;52.124;5.196;2024-02-21T08:47:32;23.58;;;11.75;;
20734;SDS011;10528;52.124;5.196;2024-02-21T08:49:59;21.27;;;11.60;;
20734;SDS011;10528;52.124;5.196;2024-02-21T08:52:40;19.10;;;11.65;;
20734;SDS011;10528;52.124;5.196;2024-02-21T08:55:07;20.50;;;11.13;;
20734;SDS011;10528;52.124;5.196;2024-02-21T08:57:34;16.23;;;10.55;;
20734;SDS011;10528;52.124;5.196;2024-02-21T09:00:05;17.77;;;11.25;;
20734;SDS011;10528;52.124;5.196;2024-02-21T09:02:37;19.85;;;11.43;;
20734;SDS011;10528;52.124;5.196;2024-02-21T09:05:07;17.02;;;11.23;;
20734;SDS011;10528;52.124;5.196;2024-02-21T09:07:34;19.80;;;10.95;;
20734;SDS011;10528;52.124;5.196;2024-02-21T09:10:01;17.83;;;9.88;;
20734;SDS011;10528;52.124;5.196;2024-02-21T09:12:29;18.13;;;9.23;;
20734;SDS011;10528;52.124;5.196;2024-02-21T09:14:56;15.63;;;9.45;;
20734;SDS011;10528;52.124;5.196;2024-02-21T09:17:23;15.52;;;10.13;;
20734;SDS011;10528;52.124;5.196;2024-02-21T09:19:51;17.70;;;10.23;;
20734;SDS011;10528;52.124;5.196;2024-02-21T09:22:19;18.88;;;9.38;;
20734;SDS011;10528;52.124;5.196;2024-02-21T09:24:45;16.73;;;8.82;;
20734;SDS011;10528;52.124;5.196;2024-02-21T09:27:13;15.13;;;9.02;;
20734;SDS011;10528;52.124;5.196;2024-02-21T09:29:40;15.38;;;8.75;;
20734;SDS011;10528;52.124;5.196;2024-02-21T09:32:07;16.30;;;8.18;;
20734;SDS011;10528;52.124;5.196;2024-02-21T09:34:34;15.80;;;8.25;;
20734;SDS011;10528;52.124;5.196;2024-02-21T09:37:02;17.45;;;8.57;;
20734;SDS011;10528;52.124;5.196;2024-02-21T09:39:29;17.60;;;9.20;;
20734;SDS011;10528;52.124;5.196;2024-02-21T09:41:58;16.30;;;8.60;;
20734;SDS011;10528;52.124;5.196;2024-02-21T09:44:33;14.93;;;8.45;;
20734;SDS011;10528;52.124;5.196;2024-02-21T09:47:10;14.70;;;8.05;;
20734;SDS011;10528;52.124;5.196;2024-02-21T09:49:46;16.92;;;8.88;;
20734;SDS011;10528;52.124;5.196;2024-02-21T09:52:14;14.82;;;8.55;;
20734;SDS011;10528;52.124;5.196;2024-02-21T09:54:43;12.65;;;8.45;;
20734;SDS011;10528;52.124;5.196;2024-02-21T09:57:11;11.88;;;8.10;;
20734;SDS011;10528;52.124;5.196;2024-02-21T09:59:39;13.82;;;8.10;;
20734;SDS011;10528;52.124;5.196;2024-02-21T10:02:08;11.30;;;7.13;;
20734;SDS011;10528;52.124;5.196;2024-02-21T10:04:35;12.52;;;7.80;;
20734;SDS011;10528;52.124;5.196;2024-02-21T10:07:02;13.93;;;7.88;;
20734;SDS011;10528;52.124;5.196;2024-02-21T10:09:30;13.13;;;7.82;;
20734;SDS011;10528;52.124;5.196;2024-02-21T10:12:08;14.07;;;7.13;;
20734;SDS011;10528;52.124;5.196;2024-02-21T10:14:37;11.77;;;7.28;;
20734;SDS011;10528;52.124;5.196;2024-02-21T10:17:04;12.52;;;7.45;;
20734;SDS011;10528;52.124;5.196;2024-02-21T10:19:37;10.05;;;7.07;;
20734;SDS011;10528;52.124;5.196;2024-02-21T10:22:07;14.45;;;6.80;;
20734;SDS011;10528;52.124;5.196;2024-02-21T10:24:35;12.77;;;6.70;;
20734;SDS011;10528;52.124;5.196;2024-02-21T10:27:10;10.43;;;6.13;;
20734;SDS011;10528;52.124;5.196;2024-02-21T10:29:38;11.02;;;5.97;;
20734;SDS011;10528;52.124;5.196;2024-02-21T10:34:37;10.55;;;6.38;;
20734;SDS011;10528;52.124;5.196;2024-02-21T10:37:07;11.55;;;6.68;;
20734;SDS011;10528;52.124;5.196;2024-02-21T10:39:37;12.68;;;6.03;;
20734;SDS011;10528;52.124;5.196;2024-02-21T10:42:07;11.60;;;5.40;;
20734;SDS011;10528;52.124;5.196;2024-02-21T10:44:38;9.40;;;5.97;;
20734;SDS011;10528;52.124;5.196;2024-02-21T10:47:08;10.40;;;5.40;;
20734;SDS011;10528;52.124;5.196;2024-02-21T10:49:39;8.38;;;5.55;;
20734;SDS011;10528;52.124;5.196;2024-02-21T10:52:14;9.55;;;5.22;;
20734;SDS011;10528;52.124;5.196;2024-02-21T10:55:04;9.10;;;5.40;;
20734;SDS011;10528;52.124;5.196;2024-02-21T10:57:39;7.90;;;5.20;;
20734;SDS011;10528;52.124;5.196;2024-02-21T11:00:07;9.05;;;5.10;;
20734;SDS011;10528;52.124;5.196;2024-02-21T11:02:38;7.20;;;5.32;;
20734;SDS011;10528;52.124;5.196;2024-02-21T11:05:06;6.82;;;4.90;;
20734;SDS011;10528;52.124;5.196;2024-02-21T11:07:35;7.95;;;4.93;;
20734;SDS011;10528;52.124;5.196;2024-02-21T11:10:04;7.15;;;5.43;;
20734;SDS011;10528;52.124;5.196;2024-02-21T11:12:33;9.02;;;5.65;;
20734;SDS011;10528;52.124;5.196;2024-02-21T11:15:06;9.70;;;5.35;;
20734;SDS011;10528;52.124;5.196;2024-02-21T11:17:34;13.02;;;6.07;;
20734;SDS011;10528;52.124;5.196;2024-02-21T11:20:15;9.48;;;6.15;;
20734;SDS011;10528;52.124;5.196;2024-02-21T11:22:42;8.57;;;5.82;;
20734;SDS011;10528;52.124;5.196;2024-02-21T11:28:14;9.27;;;7.50;;
20734;SDS011;10528;52.124;5.196;2024-02-21T11:30:52;11.05;;;7.28;;
20734;SDS011;10528;52.124;5.196;2024-02-21T11:33:21;12.20;;;8.35;;
20734;SDS011;10528;52.124;5.196;2024-02-21T11:35:50;11.13;;;8.15;;
20734;SDS011;10528;52.124;5.196;2024-02-21T11:38:19;11.15;;;8.25;;
20734;SDS011;10528;52.124;5.196;2024-02-21T11:40:49;10.20;;;7.70;;
20734;SDS011;10528;52.124;5.196;2024-02-21T11:43:16;8.68;;;7.78;;
20734;SDS011;10528;52.124;5.196;2024-02-21T11:45:43;11.35;;;8.32;;
20734;SDS011;10528;52.124;5.196;2024-02-21T11:48:10;12.00;;;8.07;;
20734;SDS011;10528;52.124;5.196;2024-02-21T11:50:37;12.55;;;8.00;;
20734;SDS011;10528;52.124;5.196;2024-02-21T11:53:06;11.07;;;7.72;;
20734;SDS011;10528;52.124;5.196;2024-02-21T11:55:33;11.70;;;7.72;;
20734;SDS011;10528;52.124;5.196;2024-02-21T11:58:00;8.60;;;7.07;;
20734;SDS011;10528;52.124;5.196;2024-02-21T12:00:27;9.75;;;7.32;;
20734;SDS011;10528;52.124;5.196;2024-02-21T12:02:54;12.30;;;7.40;;
20734;SDS011;10528;52.124;5.196;2024-02-21T12:05:26;10.65;;;6.88;;
20734;SDS011;10528;52.124;5.196;2024-02-21T12:07:55;11.90;;;6.55;;
20734;SDS011;10528;52.124;5.196;2024-02-21T12:10:26;11.30;;;7.05;;
20734;SDS011;10528;52.124;5.196;2024-02-21T12:13:08;8.25;;;6.50;;
20734;SDS011;10528;52.124;5.196;2024-02-21T12:15:36;10.48;;;6.90;;
20734;SDS011;10528;52.124;5.196;2024-02-21T12:18:05;12.20;;;6.60;;
20734;SDS011;10528;52.124;5.196;2024-02-21T12:20:32;9.15;;;6.30;;
20734;SDS011;10528;52.124;5.196;2024-02-21T12:23:00;10.50;;;6.22;;
20734;SDS011;10528;52.124;5.196;2024-02-21T12:25:27;10.30;;;6.00;;
20734;SDS011;10528;52.124;5.196;2024-02-21T12:27:55;10.07;;;6.75;;
20734;SDS011;10528;52.124;5.196;2024-02-21T12:30:22;9.43;;;5.95;;
20734;SDS011;10528;52.124;5.196;2024-02-21T12:32:49;9.15;;;6.03;;
20734;SDS011;10528;52.124;5.196;2024-02-21T12:35:16;9.32;;;6.03;;
20734;SDS011;10528;52.124;5.196;2024-02-21T12:37:46;8.07;;;5.65;;
20734;SDS011;10528;52.124;5.196;2024-02-21T12:40:13;11.02;;;6.07;;
20734;SDS011;10528;52.124;5.196;2024-02-21T12:42:41;9.05;;;5.50;;
20734;SDS011;10528;52.124;5.196;2024-02-21T12:45:08;12.38;;;5.95;;
20734;SDS011;10528;52.124;5.196;2024-02-21T12:47:36;8.27;;;5.07;;
20734;SDS011;10528;52.124;5.196;2024-02-21T12:50:03;9.55;;;5.50;;
20734;SDS011;10528;52.124;5.196;2024-02-21T12:52:33;7.93;;;5.43;;
20734;SDS011;10528;52.124;5.196;2024-02-21T12:57:52;10.80;;;5.30;;
20734;SDS011;10528;52.124;5.196;2024-02-21T13:00:19;10.07;;;5.00;;
20734;SDS011;10528;52.124;5.196;2024-02-21T13:02:47;8.07;;;4.82;;
20734;SDS011;10528;52.124;5.196;2024-02-21T13:05:14;10.15;;;4.75;;
20734;SDS011;10528;52.124;5.196;2024-02-21T13:07:41;9.95;;;4.93;;
20734;SDS011;10528;52.124;5.196;2024-02-21T13:10:08;7.45;;;4.60;;
20734;SDS011;10528;52.124;5.196;2024-02-21T13:12:35;8.20;;;4.82;;
20734;SDS011;10528;52.124;5.196;2024-02-21T13:15:03;12.75;;;4.90;;
20734;SDS011;10528;52.124;5.196;2024-02-21T13:17:30;7.13;;;4.43;;
20734;SDS011;10528;52.124;5.196;2024-02-21T13:19:58;8.43;;;5.15;;
20734;SDS011;10528;52.124;5.196;2024-02-21T13:22:25;8.85;;;4.72;;
20734;SDS011;10528;52.124;5.196;2024-02-21T13:24:53;7.43;;;4.20;;
20734;SDS011;10528;52.124;5.196;2024-02-21T13:27:23;7.88;;;4.60;;
20734;SDS011;10528;52.124;5.196;2024-02-21T13:29:49;7.90;;;4.55;;
20734;SDS011;10528;52.124;5.196;2024-02-21T13:32:16;8.60;;;4.47;;
20734;SDS011;10528;52.124;5.196;2024-02-21T13:34:43;9.25;;;4.18;;
20734;SDS011;10528;52.124;5.196;2024-02-21T13:37:10;9.13;;;4.00;;
20734;SDS011;10528;52.124;5.196;2024-02-21T13:39:37;7.53;;;3.92;;
20734;SDS011;10528;52.124;5.196;2024-02-21T13:42:05;9.27;;;4.07;;
20734;SDS011;10528;52.124;5.196;2024-02-21T13:44:32;7.03;;;3.70;;
20734;SDS011;10528;52.124;5.196;2024-02-21T13:47:00;10.15;;;4.32;;
20734;SDS011;10528;52.124;5.196;2024-02-21T13:49:27;10.77;;;4.15;;
20734;SDS011;10528;52.124;5.196;2024-02-21T13:51:55;8.93;;;4.28;;
20734;SDS011;10528;52.124;5.196;2024-02-21T13:54:22;7.80;;;4.30;;
20734;SDS011;10528;52.124;5.196;2024-02-21T13:56:49;8.50;;;4.03;;
20734;SDS011;10528;52.124;5.196;2024-02-21T13:59:16;10.80;;;4.38;;
20734;SDS011;10528;52.124;5.196;2024-02-21T14:01:43;7.57;;;4.10;;
20734;SDS011;10528;52.124;5.196;2024-02-21T14:04:10;8.57;;;4.13;;
20734;SDS011;10528;52.124;5.196;2024-02-21T14:06:38;9.60;;;4.20;;
20734;SDS011;10528;52.124;5.196;2024-02-21T14:09:09;9.23;;;4.18;;
20734;SDS011;10528;52.124;5.196;2024-02-21T14:11:37;8.07;;;3.78;;
20734;SDS011;10528;52.124;5.196;2024-02-21T14:14:04;9.50;;;4.00;;
20734;SDS011;10528;52.124;5.196;2024-02-21T14:16:32;10.88;;;4.07;;
20734;SDS011;10528;52.124;5.196;2024-02-21T14:18:59;9.63;;;4.55;;
20734;SDS011;10528;52.124;5.196;2024-02-21T14:21:26;8.38;;;3.92;;
20734;SDS011;10528;52.124;5.196;2024-02-21T14:23:54;9.63;;;4.10;;
20734;SDS011;10528;52.124;5.196;2024-02-21T14:26:22;11.60;;;4.95;;
20734;SDS011;10528;52.124;5.196;2024-02-21T14:28:49;8.93;;;4.03;;
20734;SDS011;10528;52.124;5.196;2024-02-21T14:31:17;8.68;;;4.07;;
20734;SDS011;10528;52.124;5.196;2024-02-21T14:33:43;7.63;;;3.70;;
20734;SDS011;10528;52.124;5.196;2024-02-21T14:36:12;9.52;;;4.13;;
20734;SDS011;10528;52.124;5.196;2024-02-21T14:38:41;6.90;;;3.72;;
20734;SDS011;10528;52.124;5.196;2024-02-21T14:41:12;5.68;;;3.42;;
20734;SDS011;10528;52.124;5.196;2024-02-21T14:43:40;10.10;;;3.67;;
20734;SDS011;10528;52.124;5.196;2024-02-21T14:46:07;6.30;;;3.13;;
20734;SDS011;10528;52.124;5.196;2024-02-21T14:48:34;7.53;;;4.10;;